createdAt,value
2023-02-24T00:02:10.624Z,0.20
2023-02-24T00:04:40.933Z,0.30
2023-02-24T00:07:12.561Z,2.00
2023-02-24T00:09:41.367Z,0.20
2023-02-24T00:12:13.270Z,2.00
2023-02-24T00:14:45.265Z,0.10
2023-02-24T00:17:14.790Z,0.00
2023-02-24T00:19:43.499Z,0.30
2023-02-24T00:22:12.651Z,0.93
2023-02-24T00:24:42.168Z,0.10
2023-02-24T00:27:13.400Z,0.00
2023-02-24T00:29:42.443Z,0.37
2023-02-24T00:32:13.752Z,0.20
2023-02-24T00:34:43.531Z,0.50
2023-02-24T00:37:12.360Z,0.30
2023-02-24T00:39:42.056Z,0.20
2023-02-24T00:42:11.481Z,0.87
2023-02-24T00:44:42.191Z,0.00
2023-02-24T00:47:12.128Z,0.10
2023-02-24T00:49:43.107Z,0.00
2023-02-24T00:52:17.956Z,0.10
2023-02-24T00:54:50.069Z,0.10
2023-02-24T00:57:21.047Z,0.10
2023-02-24T00:59:51.497Z,1.07
2023-02-24T01:02:20.485Z,0.10
2023-02-24T01:04:50.870Z,0.10
2023-02-24T01:07:19.636Z,0.00
2023-02-24T01:09:50.605Z,0.10
2023-02-24T01:12:36.894Z,0.10
2023-02-24T01:15:08.473Z,0.10
2023-02-24T01:17:37.833Z,0.10
2023-02-24T01:20:17.907Z,0.10
2023-02-24T01:22:53.648Z,0.10
2023-02-24T01:25:22.385Z,0.00
2023-02-24T01:27:52.710Z,0.00
2023-02-24T01:30:21.228Z,0.10
2023-02-24T01:32:51.498Z,0.10
2023-02-24T01:35:20.548Z,0.27
2023-02-24T01:37:49.170Z,0.00
2023-02-24T01:40:21.479Z,0.10
2023-02-24T01:42:50.576Z,1.93
2023-02-24T01:45:22.663Z,0.30
2023-02-24T01:47:52.584Z,0.83
2023-02-24T01:50:25.877Z,0.10
2023-02-24T01:52:59.887Z,0.97
2023-02-24T01:55:47.805Z,0.10
2023-02-24T01:58:25.167Z,0.10
2023-02-24T02:00:53.863Z,0.10
2023-02-24T02:03:35.072Z,1.10
2023-02-24T02:06:09.491Z,0.30
2023-02-24T02:08:40.837Z,0.10
2023-02-24T02:11:12.262Z,0.10
2023-02-24T02:13:44.036Z,0.60
2023-02-24T02:16:33.039Z,0.00
2023-02-24T02:19:21.310Z,0.00
2023-02-24T02:22:14.109Z,0.20
2023-02-24T02:24:48.745Z,1.13
2023-02-24T02:27:38.475Z,0.03
2023-02-24T02:30:32.919Z,0.10
2023-02-24T02:33:39.406Z,0.83
2023-02-24T02:36:13.983Z,0.00
2023-02-24T02:38:58.126Z,0.50
2023-02-24T02:41:38.715Z,0.10
2023-02-24T02:44:19.068Z,0.30
2023-02-24T02:46:59.465Z,0.50
2023-02-24T02:49:36.749Z,0.80
2023-02-24T02:52:10.041Z,0.63
2023-02-24T02:54:53.723Z,0.10
2023-02-24T02:57:31.191Z,0.10
2023-02-24T03:00:13.162Z,0.10
2023-02-24T03:02:45.018Z,0.10
2023-02-24T03:05:17.409Z,0.00
2023-02-24T03:07:49.032Z,0.10
2023-02-24T03:10:23.752Z,0.00
2023-02-24T03:12:56.645Z,0.10
2023-02-24T03:15:27.440Z,0.10
2023-02-24T03:18:00.694Z,0.10
2023-02-24T03:20:33.209Z,0.20
2023-02-24T03:23:05.165Z,0.10
2023-02-24T03:25:44.121Z,0.10
2023-02-24T03:28:18.716Z,1.27
2023-02-24T03:30:50.720Z,0.20
2023-02-24T03:33:40.978Z,0.97
2023-02-24T03:36:10.171Z,2.83
2023-02-24T03:38:38.703Z,0.20
2023-02-24T03:41:08.919Z,0.10
2023-02-24T03:43:39.528Z,0.10
2023-02-24T03:46:08.866Z,0.00
2023-02-24T03:48:40.700Z,0.03
2023-02-24T03:51:14.347Z,0.20
2023-02-24T03:54:11.351Z,0.20
2023-02-24T03:57:07.026Z,0.00
2023-02-24T03:59:47.212Z,0.40
2023-02-24T04:02:19.649Z,0.30
2023-02-24T04:04:56.821Z,0.10
2023-02-24T04:07:39.979Z,0.10
2023-02-24T04:10:27.102Z,0.10
2023-02-24T04:13:04.773Z,0.10
2023-02-24T04:15:40.041Z,0.10
2023-02-24T04:18:27.328Z,0.00
2023-02-24T04:20:59.623Z,0.10
2023-02-24T04:23:31.581Z,0.10
2023-02-24T04:26:01.322Z,1.07
2023-02-24T04:28:31.385Z,0.10
2023-02-24T04:31:05.094Z,0.30
2023-02-24T04:33:34.657Z,0.40
2023-02-24T04:36:03.338Z,0.00
2023-02-24T04:38:32.096Z,0.10
2023-02-24T04:41:00.925Z,0.10
2023-02-24T04:43:29.422Z,0.20
2023-02-24T04:45:58.473Z,0.10
2023-02-24T04:48:26.972Z,0.10
2023-02-24T04:50:55.548Z,0.00
2023-02-24T04:53:25.699Z,0.50
2023-02-24T04:55:56.388Z,0.17
2023-02-24T04:58:30.138Z,0.10
2023-02-24T05:00:58.719Z,0.10
2023-02-24T05:03:30.944Z,0.00
2023-02-24T05:06:00.617Z,0.10
2023-02-24T05:08:30.535Z,0.30
2023-02-24T05:11:01.237Z,0.10
2023-02-24T05:13:31.415Z,0.10
2023-02-24T05:16:09.029Z,0.07
2023-02-24T05:18:37.960Z,0.10
2023-02-24T05:21:30.182Z,0.00
2023-02-24T05:24:07.304Z,0.40
2023-02-24T05:26:38.142Z,0.10
2023-02-24T05:29:07.488Z,0.00
2023-02-24T05:31:37.143Z,0.10
2023-02-24T05:34:08.745Z,0.10
2023-02-24T05:36:40.527Z,0.70
2023-02-24T05:39:14.265Z,0.10
2023-02-24T05:41:44.480Z,0.20
2023-02-24T05:44:16.366Z,0.63
2023-02-24T05:46:47.278Z,0.10
2023-02-24T05:49:23.313Z,0.10
2023-02-24T05:51:55.324Z,0.30
2023-02-24T05:54:32.260Z,0.80
2023-02-24T05:57:03.475Z,0.10
2023-02-24T05:59:33.431Z,0.20
2023-02-24T06:02:07.670Z,0.50
2023-02-24T06:04:43.931Z,0.10
2023-02-24T06:07:22.587Z,0.60
2023-02-24T06:09:57.501Z,0.97
2023-02-24T06:12:32.076Z,0.93
2023-02-24T06:15:01.538Z,0.10
2023-02-24T06:17:30.540Z,0.10
2023-02-24T06:19:59.723Z,0.07
2023-02-24T06:22:29.084Z,0.10
2023-02-24T06:24:57.680Z,0.40
2023-02-24T06:27:26.974Z,0.20
2023-02-24T06:29:56.572Z,0.60
2023-02-24T06:32:26.916Z,0.10
2023-02-24T06:34:57.259Z,0.00
2023-02-24T06:37:25.831Z,0.00
2023-02-24T06:39:55.920Z,0.10
2023-02-24T06:42:24.449Z,0.37
2023-02-24T06:44:53.895Z,0.17
2023-02-24T06:47:22.595Z,0.10
2023-02-24T06:49:51.358Z,1.60
2023-02-24T06:52:20.031Z,0.30
2023-02-24T06:54:51.696Z,0.60
2023-02-24T06:57:20.685Z,0.67
2023-02-24T06:59:49.546Z,0.27
2023-02-24T07:02:18.115Z,0.50
2023-02-24T07:04:47.369Z,0.37
2023-02-24T07:07:17.075Z,0.30
2023-02-24T07:09:45.784Z,0.50
2023-02-24T07:12:16.016Z,1.47
2023-02-24T07:14:44.556Z,1.03
2023-02-24T07:17:14.659Z,2.50
2023-02-24T07:19:44.103Z,0.53
2023-02-24T07:22:14.240Z,0.00
2023-02-24T07:24:44.424Z,0.43
2023-02-24T07:27:17.029Z,0.10
2023-02-24T07:29:45.551Z,1.40
2023-02-24T07:32:14.251Z,0.30
2023-02-24T07:34:43.037Z,0.10
2023-02-24T07:37:13.064Z,0.10
2023-02-24T07:39:43.047Z,0.70
2023-02-24T07:42:15.409Z,1.47
2023-02-24T07:44:45.627Z,0.20
2023-02-24T07:47:15.604Z,0.10
2023-02-24T07:49:45.077Z,0.00
2023-02-24T07:52:13.717Z,0.30
2023-02-24T07:54:42.570Z,0.50
2023-02-24T07:57:12.761Z,0.43
2023-02-24T07:59:42.977Z,0.30
2023-02-24T08:02:11.776Z,0.33
2023-02-24T08:04:41.870Z,0.40
2023-02-24T08:07:12.058Z,2.57
2023-02-24T08:09:48.813Z,0.10
2023-02-24T08:12:22.651Z,1.07
2023-02-24T08:14:53.512Z,0.20
2023-02-24T08:17:26.173Z,0.10
2023-02-24T08:20:16.361Z,0.37
2023-02-24T08:22:46.977Z,0.10
2023-02-24T08:25:22.104Z,0.47
2023-02-24T08:28:08.993Z,0.10
2023-02-24T08:30:28.925Z,1.37
2023-02-24T08:32:59.636Z,1.40
2023-02-24T08:35:35.696Z,0.13
2023-02-24T08:38:07.653Z,0.57
2023-02-24T08:40:40.515Z,0.60
2023-02-24T08:43:19.897Z,0.57
2023-02-24T08:45:51.256Z,1.40
2023-02-24T08:48:30.861Z,0.77
2023-02-24T08:51:02.011Z,0.63
2023-02-24T08:53:31.520Z,0.37
2023-02-24T08:56:04.407Z,1.03
2023-02-24T08:58:32.954Z,1.10
2023-02-24T09:01:03.129Z,0.60
2023-02-24T09:03:33.672Z,0.73
2023-02-24T09:06:08.802Z,0.37
2023-02-24T09:08:40.154Z,0.37
2023-02-24T09:11:14.959Z,1.50
2023-02-24T09:13:54.986Z,0.20
2023-02-24T09:16:23.943Z,0.40
2023-02-24T09:19:10.791Z,0.20
2023-02-24T09:21:50.048Z,0.70
2023-02-24T09:24:27.658Z,0.97
2023-02-24T09:26:59.493Z,2.13
2023-02-24T09:29:34.829Z,1.20
2023-02-24T09:32:06.191Z,0.83
2023-02-24T09:34:41.935Z,0.20
2023-02-24T09:37:12.992Z,1.03
2023-02-24T09:39:58.045Z,1.33
2023-02-24T09:42:29.593Z,0.40
2023-02-24T09:45:04.161Z,1.57
2023-02-24T09:47:43.626Z,0.30
2023-02-24T09:50:51.185Z,1.70
2023-02-24T09:53:02.914Z,2.07
2023-02-24T09:55:39.814Z,1.00
2023-02-24T09:58:41.768Z,0.30
2023-02-24T10:01:21.767Z,1.17
2023-02-24T10:04:20.078Z,0.40
2023-02-24T10:06:43.189Z,0.77
2023-02-24T10:09:14.807Z,0.40
2023-02-24T10:11:49.032Z,1.07
2023-02-24T10:14:19.435Z,1.33
2023-02-24T10:16:51.597Z,1.17
2023-02-24T10:19:23.874Z,1.10
2023-02-24T10:22:13.514Z,0.97
2023-02-24T10:24:56.065Z,0.70
2023-02-24T10:27:36.695Z,1.87
2023-02-24T10:30:25.135Z,1.17
2023-02-24T10:32:59.360Z,0.87
2023-02-24T10:35:32.858Z,1.03
2023-02-24T10:38:09.451Z,0.43
2023-02-24T10:40:51.473Z,0.73
2023-02-24T10:43:24.250Z,1.43
2023-02-24T10:45:54.950Z,1.30
2023-02-24T10:48:40.719Z,0.77
2023-02-24T10:50:59.859Z,1.67
2023-02-24T10:53:34.928Z,0.53
2023-02-24T10:56:20.023Z,0.40
2023-02-24T10:58:56.168Z,0.23
2023-02-24T11:01:44.150Z,0.83
2023-02-24T11:04:33.808Z,0.77
2023-02-24T11:07:09.968Z,0.93
2023-02-24T11:09:52.542Z,1.13
2023-02-24T11:12:44.092Z,1.20
2023-02-24T11:15:39.050Z,1.83
2023-02-24T11:18:10.387Z,0.20
2023-02-24T11:20:49.437Z,1.50
2023-02-24T11:23:35.420Z,1.47
2023-02-24T11:26:09.611Z,0.50
2023-02-24T11:29:06.429Z,0.10
2023-02-24T11:31:54.541Z,2.77
2023-02-24T11:34:28.951Z,1.03
2023-02-24T11:37:00.832Z,0.47
2023-02-24T11:39:53.562Z,1.83
2023-02-24T11:42:27.692Z,0.40
2023-02-24T11:45:12.100Z,0.73
2023-02-24T11:47:46.586Z,0.83
2023-02-24T11:50:18.541Z,1.57
2023-02-24T11:52:50.056Z,0.87
2023-02-24T11:55:26.222Z,0.10
2023-02-24T11:57:57.752Z,0.83
2023-02-24T12:00:29.523Z,1.37
2023-02-24T12:03:13.329Z,1.03
2023-02-24T12:05:47.333Z,1.43
2023-02-24T12:08:32.361Z,1.40
2023-02-24T12:11:25.253Z,1.43
2023-02-24T12:13:57.193Z,0.90
2023-02-24T12:16:28.758Z,1.13
2023-02-24T12:19:06.328Z,1.87
2023-02-24T12:21:41.713Z,1.47
2023-02-24T12:24:13.765Z,1.57
2023-02-24T12:27:13.841Z,2.47
2023-02-24T12:29:48.916Z,1.20
2023-02-24T12:32:23.493Z,2.23
2023-02-24T12:34:57.962Z,0.97
2023-02-24T12:37:38.092Z,0.67
2023-02-24T12:40:34.453Z,1.97
2023-02-24T12:43:38.876Z,1.70
2023-02-24T12:46:16.434Z,1.90
2023-02-24T12:49:15.683Z,0.50
2023-02-24T12:51:59.311Z,1.60
2023-02-24T12:54:43.304Z,0.97
2023-02-24T12:57:17.419Z,0.63
2023-02-24T12:59:46.391Z,2.03
2023-02-24T13:02:20.968Z,2.73
2023-02-24T13:05:10.155Z,2.70
2023-02-24T13:07:44.280Z,4.10
2023-02-24T13:10:31.186Z,2.50
2023-02-24T13:13:17.529Z,1.67
2023-02-24T13:15:54.888Z,2.90
2023-02-24T13:18:31.981Z,2.33
2023-02-24T13:21:24.654Z,2.53
2023-02-24T13:24:02.056Z,1.80
2023-02-24T13:26:33.092Z,3.87
2023-02-24T13:29:11.029Z,3.20
2023-02-24T13:31:51.861Z,2.10
2023-02-24T13:34:34.989Z,3.23
2023-02-24T13:37:04.540Z,2.23
2023-02-24T13:39:36.266Z,2.30
2023-02-24T13:42:08.119Z,3.20
2023-02-24T13:44:37.034Z,1.57
2023-02-24T13:47:29.071Z,1.30
2023-02-24T13:50:19.724Z,1.77
2023-02-24T13:53:20.072Z,0.83
2023-02-24T13:55:51.698Z,2.57
2023-02-24T13:58:29.092Z,1.97
2023-02-24T14:01:03.576Z,1.50
2023-02-24T14:03:35.857Z,2.70
2023-02-24T14:06:05.028Z,2.20
2023-02-24T14:08:45.889Z,1.50
2023-02-24T14:11:16.396Z,2.13
2023-02-24T14:13:50.960Z,1.90
2023-02-24T14:16:23.571Z,2.10
2023-02-24T14:18:58.007Z,1.03
2023-02-24T14:21:28.877Z,2.40
2023-02-24T14:24:07.856Z,1.97
2023-02-24T14:26:44.765Z,1.87
2023-02-24T14:29:16.462Z,1.73
2023-02-24T14:31:51.688Z,1.87
2023-02-24T14:34:22.716Z,1.00
2023-02-24T14:36:54.457Z,0.87
2023-02-24T14:39:25.829Z,1.73
2023-02-24T14:42:10.251Z,1.17
2023-02-24T14:44:44.624Z,1.60
2023-02-24T14:47:15.036Z,2.13
2023-02-24T14:49:55.461Z,2.30
2023-02-24T14:52:41.994Z,1.27
2023-02-24T14:55:15.207Z,2.10
2023-02-24T14:57:46.802Z,3.40
2023-02-24T15:00:20.153Z,1.80
2023-02-24T15:02:54.345Z,3.20
2023-02-24T15:05:23.167Z,3.53
2023-02-24T15:07:52.119Z,1.27
2023-02-24T15:10:26.444Z,3.37
2023-02-24T15:13:00.725Z,2.07
2023-02-24T15:15:32.831Z,3.27
2023-02-24T15:18:09.909Z,4.33
2023-02-24T15:20:40.789Z,2.57
2023-02-24T15:23:27.212Z,2.53
2023-02-24T15:25:56.131Z,3.63
2023-02-24T15:28:31.916Z,1.53
2023-02-24T15:31:11.495Z,4.00
2023-02-24T15:33:42.925Z,2.77
2023-02-24T15:36:14.577Z,1.97
2023-02-24T15:38:44.874Z,3.67
2023-02-24T15:41:14.634Z,2.23
2023-02-24T15:43:50.017Z,3.83
2023-02-24T15:46:24.991Z,2.83
2023-02-24T15:48:56.260Z,3.23
2023-02-24T15:51:33.845Z,3.77
2023-02-24T15:54:04.444Z,2.67
2023-02-24T15:56:35.458Z,3.67
2023-02-24T15:59:05.814Z,4.97
2023-02-24T16:01:37.991Z,2.67
2023-02-24T16:04:09.615Z,4.00
2023-02-24T16:06:41.801Z,4.77
2023-02-24T16:09:18.524Z,5.33
2023-02-24T16:11:48.156Z,3.00
2023-02-24T16:14:19.511Z,1.23
2023-02-24T16:16:48.138Z,5.07
2023-02-24T16:19:17.231Z,2.90
2023-02-24T16:21:46.394Z,1.83
2023-02-24T16:24:14.927Z,4.50
2023-02-24T16:26:43.544Z,1.93
2023-02-24T16:29:15.174Z,3.03
2023-02-24T16:31:43.830Z,0.30
2023-02-24T16:34:16.329Z,2.70
2023-02-24T16:36:45.750Z,5.43
2023-02-24T16:39:15.033Z,6.20
2023-02-24T16:41:43.571Z,3.00
2023-02-24T16:44:12.154Z,3.93
2023-02-24T16:46:43.081Z,4.60
2023-02-24T16:49:14.667Z,4.17
2023-02-24T16:51:43.273Z,2.67
2023-02-24T16:54:11.639Z,1.53
2023-02-24T16:56:39.883Z,2.77
2023-02-24T16:59:08.051Z,1.70
2023-02-24T17:01:36.358Z,1.10
2023-02-24T17:04:07.848Z,0.57
2023-02-24T17:06:36.361Z,1.30
2023-02-24T17:09:04.601Z,4.47
2023-02-24T17:11:33.405Z,1.03
2023-02-24T17:14:01.704Z,3.87
2023-02-24T17:16:30.865Z,2.07
2023-02-24T17:18:59.534Z,2.73
2023-02-24T17:21:28.092Z,2.30
2023-02-24T17:23:57.719Z,1.57
2023-02-24T17:26:25.855Z,5.80
2023-02-24T17:28:54.086Z,1.53
2023-02-24T17:31:22.770Z,2.30
2023-02-24T17:33:51.041Z,3.67
2023-02-24T17:36:19.432Z,1.57
2023-02-24T17:38:47.832Z,2.60
2023-02-24T17:41:16.035Z,2.10
2023-02-24T17:43:44.566Z,1.90
2023-02-24T17:46:13.126Z,2.43
2023-02-24T17:48:43.277Z,2.17
2023-02-24T17:51:18.192Z,2.67
2023-02-24T17:53:48.753Z,0.00
2023-02-24T17:56:19.714Z,1.67
2023-02-24T17:58:48.478Z,0.70
2023-02-24T18:01:17.053Z,1.07
2023-02-24T18:03:53.077Z,0.67
2023-02-24T18:06:23.369Z,1.10
2023-02-24T18:08:52.274Z,1.23
2023-02-24T18:11:21.241Z,0.73
2023-02-24T18:13:51.517Z,0.10
2023-02-24T18:16:20.604Z,0.80
2023-02-24T18:18:49.837Z,2.50
2023-02-24T18:21:18.590Z,0.17
2023-02-24T18:23:49.499Z,0.23
2023-02-24T18:26:22.680Z,2.00
2023-02-24T18:28:51.952Z,0.27
2023-02-24T18:31:23.276Z,0.30
2023-02-24T18:33:52.035Z,0.00
2023-02-24T18:36:21.171Z,0.10
2023-02-24T18:38:49.950Z,0.10
2023-02-24T18:41:23.218Z,1.03
2023-02-24T18:43:53.576Z,1.47
2023-02-24T18:46:23.931Z,0.67
2023-02-24T18:48:53.625Z,0.97
2023-02-24T18:51:23.996Z,0.40
2023-02-24T18:53:53.328Z,1.10
2023-02-24T18:56:25.584Z,0.30
2023-02-24T18:59:00.488Z,0.17
2023-02-24T19:01:34.715Z,1.13
2023-02-24T19:04:06.279Z,0.10
2023-02-24T19:06:35.026Z,0.40
2023-02-24T19:09:11.993Z,0.20
2023-02-24T19:11:43.013Z,0.60
2023-02-24T19:14:13.983Z,0.00
2023-02-24T19:16:42.562Z,0.43
2023-02-24T19:19:16.264Z,0.10
2023-02-24T19:21:45.877Z,0.33
2023-02-24T19:24:14.568Z,1.40
2023-02-24T19:26:44.249Z,1.00
2023-02-24T19:29:14.270Z,0.30
2023-02-24T19:31:43.433Z,0.83
2023-02-24T19:34:14.655Z,0.10
2023-02-24T19:36:43.266Z,0.87
2023-02-24T19:39:16.215Z,1.40
2023-02-24T19:41:45.674Z,0.73
2023-02-24T19:44:14.725Z,0.63
2023-02-24T19:46:46.797Z,0.10
2023-02-24T19:49:16.970Z,0.33
2023-02-24T19:51:48.141Z,0.10
2023-02-24T19:54:16.392Z,0.20
2023-02-24T19:56:44.968Z,0.10
2023-02-24T19:59:15.156Z,0.10
2023-02-24T20:01:44.233Z,0.10
2023-02-24T20:04:13.015Z,0.00
2023-02-24T20:06:43.613Z,1.17
2023-02-24T20:09:15.932Z,1.03
2023-02-24T20:11:46.183Z,0.80
2023-02-24T20:14:20.769Z,0.27
2023-02-24T20:16:49.463Z,4.90
2023-02-24T20:19:17.992Z,0.97
2023-02-24T20:21:51.965Z,1.17
2023-02-24T20:24:20.942Z,0.40
2023-02-24T20:26:50.248Z,1.70
2023-02-24T20:29:21.094Z,0.60
2023-02-24T20:31:50.579Z,0.27
2023-02-24T20:34:19.310Z,0.10
2023-02-24T20:36:47.899Z,0.47
2023-02-24T20:39:16.464Z,0.47
2023-02-24T20:41:45.373Z,0.60
2023-02-24T20:44:14.013Z,0.23
2023-02-24T20:46:49.273Z,0.37
2023-02-24T20:49:17.820Z,0.10
2023-02-24T20:51:47.057Z,0.10
2023-02-24T20:54:16.402Z,0.10
2023-02-24T20:56:47.647Z,0.20
2023-02-24T20:59:23.227Z,0.40
2023-02-24T21:01:53.787Z,0.27
2023-02-24T21:04:22.904Z,0.10
2023-02-24T21:06:52.916Z,2.80
2023-02-24T21:09:21.435Z,1.17
2023-02-24T21:11:50.006Z,1.80
2023-02-24T21:14:22.033Z,0.63
2023-02-24T21:16:50.538Z,0.60
2023-02-24T21:19:20.671Z,0.77
2023-02-24T21:21:49.147Z,1.20
2023-02-24T21:24:18.025Z,0.40
2023-02-24T21:26:47.316Z,0.57
2023-02-24T21:29:16.446Z,0.63
2023-02-24T21:31:45.415Z,0.93
2023-02-24T21:34:16.563Z,0.30
2023-02-24T21:36:45.548Z,1.37
2023-02-24T21:39:14.609Z,1.40
2023-02-24T21:41:43.538Z,0.30
2023-02-24T21:44:16.335Z,0.10
2023-02-24T21:46:45.969Z,0.30
2023-02-24T21:49:14.613Z,0.53
2023-02-24T21:51:43.387Z,0.47
2023-02-24T21:54:12.747Z,0.40
2023-02-24T21:56:42.162Z,0.60
2023-02-24T21:59:11.273Z,0.23
2023-02-24T22:01:42.381Z,0.63
2023-02-24T22:04:16.673Z,0.73
2023-02-24T22:06:46.060Z,1.50
2023-02-24T22:09:23.477Z,1.07
2023-02-24T22:11:52.800Z,1.03
2023-02-24T22:14:21.474Z,0.30
2023-02-24T22:16:49.930Z,0.63
2023-02-24T22:19:20.051Z,1.87
2023-02-24T22:21:48.820Z,0.10
2023-02-24T22:24:18.578Z,0.10
2023-02-24T22:26:47.174Z,1.70
2023-02-24T22:29:15.772Z,0.10
2023-02-24T22:31:47.627Z,0.83
2023-02-24T22:34:15.545Z,0.10
2023-02-24T22:36:44.222Z,0.83
2023-02-24T22:39:14.417Z,0.20
2023-02-24T22:41:43.048Z,0.40
2023-02-24T22:44:13.116Z,1.20
2023-02-24T22:46:41.688Z,0.40
2023-02-24T22:49:11.302Z,0.30
2023-02-24T22:51:40.276Z,0.40
2023-02-24T22:54:09.402Z,0.43
2023-02-24T22:56:38.183Z,0.70
2023-02-24T22:59:07.073Z,0.37
2023-02-24T23:01:37.812Z,1.43
2023-02-24T23:04:09.237Z,0.70
2023-02-24T23:06:37.905Z,0.13
2023-02-24T23:09:07.743Z,1.40
2023-02-24T23:11:40.732Z,0.10
2023-02-24T23:14:13.742Z,0.20
2023-02-24T23:16:44.544Z,0.53
2023-02-24T23:19:16.751Z,0.67
2023-02-24T23:21:47.874Z,0.60
2023-02-24T23:24:18.220Z,1.23
2023-02-24T23:26:49.218Z,1.27
2023-02-24T23:29:19.185Z,0.67
2023-02-24T23:31:48.196Z,0.30
2023-02-24T23:34:16.910Z,0.10
2023-02-24T23:36:47.060Z,2.00
2023-02-24T23:39:20.637Z,1.70
2023-02-24T23:41:49.396Z,0.20
2023-02-24T23:44:18.988Z,1.20
2023-02-24T23:46:47.528Z,3.73
2023-02-24T23:49:16.063Z,0.30
2023-02-24T23:51:49.008Z,0.90
2023-02-24T23:54:14.754Z,1.00
2023-02-24T23:56:43.609Z,1.13
2023-02-24T23:59:12.452Z,1.60
